Time;durP1;ratioP1;P1;durP2;ratioP2;P2;SDS_P1;SDS_P2;PMS_P1;PMS_P2;Temp;Humidity;BMP_temperature;BMP_pressure;BME280_temperature;BME280_humidity;BME280_pressure;Samples;Min_cycle;Max_cycle;Signal;HPM_P1;HPM_P2
2021/03/15 00:00:50;;;;;;;0.20;0.20;;;;;;;;;;5063567;28;20484;-74
2021/03/15 00:03:17;;;;;;;0.20;0.20;;;;;;;;;;5081501;28;20200;-74
2021/03/15 00:05:44;;;;;;;0.20;0.20;;;;;;;;;;5058682;28;20239;-75
2021/03/15 00:08:11;;;;;;;0.20;0.20;;;;;;;;;;5045452;28;20207;-75
2021/03/15 00:10:38;;;;;;;0.20;0.20;;;;;;;;;;5055205;28;20248;-74
2021/03/15 00:13:04;;;;;;;0.20;0.20;;;;;;;;;;5076271;28;20198;-74
2021/03/15 00:15:30;;;;;;;0.20;0.20;;;;;;;;;;5080938;28;20204;-75
2021/03/15 00:17:56;;;;;;;0.20;0.20;;;;;;;;;;5085214;28;20201;-75
2021/03/15 00:20:23;;;;;;;0.20;0.20;;;;;;;;;;5060367;28;20380;-74
2021/03/15 00:22:50;;;;;;;0.20;0.20;;;;;;;;;;5070962;28;20280;-75
2021/03/15 00:25:16;;;;;;;0.20;0.20;;;;;;;;;;5069222;28;20230;-74
2021/03/15 00:27:43;;;;;;;0.20;0.20;;;;;;;;;;5081159;28;20201;-75
2021/03/15 00:30:10;;;;;;;0.10;0.10;;;;;;;;;;5070756;28;20210;-74
2021/03/15 00:32:37;;;;;;;0.20;0.20;;;;;;;;;;5053071;28;20234;-74
2021/03/15 00:35:04;;;;;;;0.20;0.20;;;;;;;;;;5046287;28;20389;-76
2021/03/15 00:37:30;;;;;;;0.20;0.20;;;;;;;;;;5055122;28;20225;-76
2021/03/15 00:39:57;;;;;;;0.20;0.20;;;;;;;;;;5071611;28;20530;-74
2021/03/15 00:42:23;;;;;;;0.20;0.20;;;;;;;;;;5083250;28;20283;-74
2021/03/15 00:44:50;;;;;;;0.20;0.20;;;;;;;;;;5080448;28;20242;-75
2021/03/15 00:47:16;;;;;;;0.20;0.20;;;;;;;;;;5055765;28;20200;-75
2021/03/15 00:49:43;;;;;;;0.20;0.20;;;;;;;;;;5053826;28;20243;-75
2021/03/15 00:52:09;;;;;;;0.20;0.20;;;;;;;;;;5070820;28;20396;-75
2021/03/15 00:54:35;;;;;;;0.20;0.20;;;;;;;;;;5080477;28;20201;-75
2021/03/15 00:57:02;;;;;;;0.20;0.20;;;;;;;;;;5063724;28;20208;-75
2021/03/15 00:59:29;;;;;;;0.20;0.20;;;;;;;;;;5081200;28;20204;-75
2021/03/15 01:01:55;;;;;;;0.20;0.20;;;;;;;;;;5061702;28;20287;-74
2021/03/15 01:04:21;;;;;;;0.10;0.10;;;;;;;;;;5081078;28;20223;-75
2021/03/15 01:06:48;;;;;;;0.20;0.20;;;;;;;;;;5082433;28;20489;-73
2021/03/15 01:09:14;;;;;;;0.20;0.20;;;;;;;;;;5064066;28;20217;-77
2021/03/15 01:11:40;;;;;;;0.20;0.20;;;;;;;;;;5083966;28;20209;-74
2021/03/15 01:14:08;;;;;;;0.20;0.20;;;;;;;;;;5081937;28;20219;-74
2021/03/15 01:16:34;;;;;;;0.20;0.20;;;;;;;;;;5076262;28;20225;-74
2021/03/15 01:19:01;;;;;;;0.20;0.20;;;;;;;;;;5059884;28;20201;-73
2021/03/15 01:21:27;;;;;;;0.20;0.20;;;;;;;;;;5071691;28;20246;-74
2021/03/15 01:23:53;;;;;;;0.20;0.20;;;;;;;;;;5062553;28;20220;-75
2021/03/15 01:26:20;;;;;;;0.20;0.20;;;;;;;;;;5074344;28;20206;-74
2021/03/15 01:28:46;;;;;;;0.20;0.20;;;;;;;;;;5058064;28;20205;-75
2021/03/15 01:31:13;;;;;;;0.20;0.20;;;;;;;;;;5076824;28;20213;-74
2021/03/15 01:33:39;;;;;;;0.10;0.10;;;;;;;;;;5072620;28;20546;-76
2021/03/15 01:36:06;;;;;;;0.20;0.20;;;;;;;;;;5063561;28;20377;-75
2021/03/15 01:38:32;;;;;;;0.20;0.20;;;;;;;;;;5057888;28;20209;-75
2021/03/15 01:40:59;;;;;;;0.20;0.20;;;;;;;;;;5054673;28;20210;-75
2021/03/15 01:43:24;;;;;;;0.20;0.20;;;;;;;;;;5066486;28;20504;-74
2021/03/15 01:45:50;;;;;;;0.20;0.20;;;;;;;;;;5078093;28;20271;-75
2021/03/15 01:48:18;;;;;;;0.20;0.20;;;;;;;;;;5062713;28;20396;-74
2021/03/15 01:50:44;;;;;;;0.20;0.20;;;;;;;;;;5074182;28;20414;-75
2021/03/15 01:53:11;;;;;;;0.20;0.20;;;;;;;;;;5062989;28;20221;-74
2021/03/15 01:55:37;;;;;;;0.20;0.20;;;;;;;;;;5080866;28;20196;-76
2021/03/15 01:58:04;;;;;;;0.20;0.20;;;;;;;;;;5060467;28;20238;-75
2021/03/15 02:00:31;;;;;;;4.27;4.07;;;;;;;;;;5077495;28;20212;-69
2021/03/15 02:02:58;;;;;;;0.20;0.20;;;;;;;;;;5061235;28;20204;-69
2021/03/15 02:05:26;;;;;;;0.20;0.20;;;;;;;;;;5062982;28;20261;-69
2021/03/15 02:07:52;;;;;;;0.20;0.20;;;;;;;;;;5058551;28;20525;-71
2021/03/15 02:10:19;;;;;;;0.20;0.20;;;;;;;;;;5072101;28;20380;-70
2021/03/15 02:12:51;;;;;;;0.20;0.20;;;;;;;;;;5055004;28;20201;-68
2021/03/15 02:15:19;;;;;;;0.20;0.20;;;;;;;;;;5073906;28;20384;-69
2021/03/15 02:17:52;;;;;;;0.20;0.20;;;;;;;;;;5069377;28;20204;-69
2021/03/15 02:20:35;;;;;;;0.20;0.20;;;;;;;;;;5078354;28;20239;-70
2021/03/15 02:23:05;;;;;;;0.20;0.20;;;;;;;;;;5069053;28;20203;-68
2021/03/15 02:25:49;;;;;;;0.20;0.20;;;;;;;;;;5070064;28;20230;-70
2021/03/15 02:28:33;;;;;;;0.20;0.20;;;;;;;;;;5078376;28;20205;-68
2021/03/15 02:31:11;;;;;;;0.20;0.20;;;;;;;;;;5038623;28;20249;-70
2021/03/15 02:33:50;;;;;;;0.20;0.20;;;;;;;;;;5069091;28;20210;-70
2021/03/15 02:36:18;;;;;;;0.17;0.17;;;;;;;;;;5066547;28;20491;-69
2021/03/15 02:38:46;;;;;;;0.20;0.20;;;;;;;;;;5055130;28;20232;-69
2021/03/15 02:41:13;;;;;;;0.20;0.20;;;;;;;;;;5076758;28;20211;-70
2021/03/15 02:43:43;;;;;;;0.20;0.20;;;;;;;;;;5073884;28;20299;-69
2021/03/15 02:46:12;;;;;;;0.20;0.20;;;;;;;;;;5067668;28;20205;-69
2021/03/15 02:48:38;;;;;;;0.20;0.20;;;;;;;;;;5050130;28;20529;-70
2021/03/15 02:51:05;;;;;;;0.20;0.20;;;;;;;;;;5079820;28;20207;-69
2021/03/15 02:53:33;;;;;;;0.17;0.17;;;;;;;;;;5057167;28;20199;-69
2021/03/15 02:56:00;;;;;;;0.20;0.20;;;;;;;;;;5058711;28;20207;-69
2021/03/15 02:58:27;;;;;;;0.20;0.20;;;;;;;;;;5076091;28;20209;-70
2021/03/15 03:00:53;;;;;;;0.20;0.20;;;;;;;;;;5079878;28;20199;-70
2021/03/15 03:03:21;;;;;;;0.20;0.20;;;;;;;;;;5065257;28;20221;-71
2021/03/15 03:05:49;;;;;;;0.20;0.20;;;;;;;;;;5065269;28;20228;-70
2021/03/15 03:08:16;;;;;;;0.20;0.20;;;;;;;;;;5082990;28;20204;-69
2021/03/15 03:10:43;;;;;;;0.20;0.20;;;;;;;;;;5081242;28;20504;-69
2021/03/15 03:13:10;;;;;;;0.10;0.10;;;;;;;;;;5086990;28;20215;-68
2021/03/15 03:15:37;;;;;;;0.20;0.20;;;;;;;;;;5060042;28;20502;-70
2021/03/15 03:18:04;;;;;;;0.20;0.20;;;;;;;;;;5077801;28;20204;-69
2021/03/15 03:20:31;;;;;;;0.20;0.20;;;;;;;;;;5078340;28;20204;-70
2021/03/15 03:22:59;;;;;;;0.20;0.20;;;;;;;;;;5061365;28;20386;-70
2021/03/15 03:25:26;;;;;;;0.20;0.20;;;;;;;;;;5084730;28;20534;-69
2021/03/15 03:27:54;;;;;;;0.20;0.20;;;;;;;;;;5064462;28;20196;-69
2021/03/15 03:30:23;;;;;;;0.20;0.20;;;;;;;;;;5083035;28;20203;-71
2021/03/15 03:32:50;;;;;;;0.20;0.20;;;;;;;;;;5083849;28;20275;-68
2021/03/15 03:35:16;;;;;;;0.20;0.20;;;;;;;;;;5080996;28;20199;-68
2021/03/15 03:37:42;;;;;;;0.10;0.10;;;;;;;;;;5055829;28;20211;-69
2021/03/15 03:40:09;;;;;;;0.20;0.20;;;;;;;;;;5064049;28;20200;-69
2021/03/15 03:42:35;;;;;;;0.10;0.10;;;;;;;;;;5076307;28;20208;-69
2021/03/15 03:45:03;;;;;;;0.17;0.17;;;;;;;;;;5061690;28;20220;-69
2021/03/15 03:47:29;;;;;;;0.20;0.20;;;;;;;;;;5072777;28;20205;-70
2021/03/15 03:49:56;;;;;;;0.10;0.10;;;;;;;;;;5063092;28;20402;-69
2021/03/15 03:52:23;;;;;;;0.20;0.20;;;;;;;;;;5063535;28;20980;-69
2021/03/15 03:54:50;;;;;;;0.20;0.20;;;;;;;;;;5074700;28;20203;-70
2021/03/15 03:57:21;;;;;;;0.20;0.20;;;;;;;;;;5076074;28;20201;-70
2021/03/15 03:59:48;;;;;;;0.20;0.20;;;;;;;;;;5086265;28;20228;-69
2021/03/15 04:02:17;;;;;;;0.20;0.20;;;;;;;;;;5062505;28;20231;-68
2021/03/15 04:04:45;;;;;;;0.20;0.20;;;;;;;;;;5083777;28;20504;-68
2021/03/15 04:07:12;;;;;;;0.20;0.20;;;;;;;;;;5085305;28;20215;-69
2021/03/15 04:09:39;;;;;;;0.20;0.20;;;;;;;;;;5051925;28;20223;-69
2021/03/15 04:12:07;;;;;;;0.20;0.20;;;;;;;;;;5076445;28;20203;-70
2021/03/15 04:14:36;;;;;;;0.20;0.20;;;;;;;;;;5079190;28;20326;-69
2021/03/15 04:17:02;;;;;;;0.20;0.20;;;;;;;;;;5079638;28;20251;-69
2021/03/15 04:19:32;;;;;;;0.20;0.20;;;;;;;;;;5065091;28;20503;-68
2021/03/15 04:22:01;;;;;;;0.20;0.20;;;;;;;;;;5082373;28;20206;-70
2021/03/15 04:24:28;;;;;;;0.20;0.20;;;;;;;;;;5081683;28;20410;-69
2021/03/15 04:26:55;;;;;;;0.20;0.20;;;;;;;;;;5060881;28;20201;-68
2021/03/15 04:29:21;;;;;;;0.20;0.20;;;;;;;;;;5075130;28;20208;-68
2021/03/15 04:31:48;;;;;;;0.20;0.20;;;;;;;;;;5064601;28;20206;-69
2021/03/15 04:34:15;;;;;;;0.20;0.20;;;;;;;;;;5064091;28;20391;-68
2021/03/15 04:36:44;;;;;;;0.20;0.20;;;;;;;;;;5077492;28;20247;-69
2021/03/15 04:39:10;;;;;;;0.20;0.20;;;;;;;;;;5065840;28;20245;-69
2021/03/15 04:41:36;;;;;;;0.20;0.20;;;;;;;;;;5081619;28;20200;-69
2021/03/15 04:44:02;;;;;;;0.20;0.20;;;;;;;;;;5073767;28;20197;-68
2021/03/15 04:46:30;;;;;;;0.20;0.20;;;;;;;;;;5060777;28;20204;-69
2021/03/15 04:48:57;;;;;;;0.20;0.20;;;;;;;;;;5083203;28;20268;-69
2021/03/15 04:51:23;;;;;;;0.20;0.20;;;;;;;;;;5081711;28;20232;-69
2021/03/15 04:53:50;;;;;;;0.20;0.20;;;;;;;;;;5057289;28;20200;-68
2021/03/15 04:56:18;;;;;;;0.20;0.20;;;;;;;;;;5061357;28;20207;-69
2021/03/15 04:58:46;;;;;;;0.20;0.20;;;;;;;;;;5061861;28;20567;-69
2021/03/15 05:01:12;;;;;;;0.20;0.20;;;;;;;;;;5071546;28;20203;-69
2021/03/15 05:03:40;;;;;;;0.20;0.20;;;;;;;;;;5065063;28;20204;-69
2021/03/15 05:06:07;;;;;;;0.20;0.20;;;;;;;;;;5074274;28;20231;-69
2021/03/15 05:08:35;;;;;;;0.20;0.20;;;;;;;;;;5055457;28;20203;-69
2021/03/15 05:11:04;;;;;;;0.20;0.20;;;;;;;;;;5070435;28;20564;-71
2021/03/15 05:13:32;;;;;;;0.20;0.20;;;;;;;;;;5063820;28;20392;-70
2021/03/15 05:15:59;;;;;;;0.20;0.20;;;;;;;;;;5077547;28;20208;-70
2021/03/15 05:18:27;;;;;;;0.20;0.20;;;;;;;;;;5068504;28;20206;-70
2021/03/15 05:20:53;;;;;;;0.20;0.20;;;;;;;;;;5081553;28;20203;-69
2021/03/15 05:23:20;;;;;;;0.20;0.20;;;;;;;;;;5081156;28;20227;-70
2021/03/15 05:25:49;;;;;;;0.20;0.20;;;;;;;;;;5073359;28;20211;-71
2021/03/15 05:28:16;;;;;;;0.20;0.20;;;;;;;;;;5081501;28;20200;-70
2021/03/15 05:30:43;;;;;;;0.20;0.20;;;;;;;;;;5081522;28;20205;-69
2021/03/15 05:33:11;;;;;;;0.20;0.20;;;;;;;;;;5080926;28;20399;-70
2021/03/15 05:35:37;;;;;;;0.20;0.20;;;;;;;;;;5081119;28;20195;-71
2021/03/15 05:38:04;;;;;;;1.50;1.50;;;;;;;;;;5080762;28;20567;-69
2021/03/15 05:40:31;;;;;;;0.20;0.20;;;;;;;;;;5053306;28;20206;-69
2021/03/15 05:43:01;;;;;;;0.20;0.20;;;;;;;;;;5077523;28;20275;-69
2021/03/15 05:45:37;;;;;;;0.20;0.20;;;;;;;;;;5083752;28;20221;-69
2021/03/15 05:48:12;;;;;;;0.20;0.20;;;;;;;;;;5073429;28;20376;-70
2021/03/15 05:50:51;;;;;;;0.20;0.20;;;;;;;;;;5063584;28;20513;-71
2021/03/15 05:53:35;;;;;;;1.47;1.47;;;;;;;;;;5077702;28;20229;-69
2021/03/15 05:56:19;;;;;;;0.20;0.20;;;;;;;;;;5079588;28;20540;-69
2021/03/15 05:59:04;;;;;;;0.20;0.20;;;;;;;;;;5073616;28;20200;-70
2021/03/15 06:01:45;;;;;;;0.20;0.20;;;;;;;;;;5078895;28;20200;-70
2021/03/15 06:04:23;;;;;;;0.27;0.27;;;;;;;;;;5073768;28;20219;-71
2021/03/15 06:06:53;;;;;;;0.20;0.20;;;;;;;;;;5068441;28;20203;-69
2021/03/15 06:09:20;;;;;;;0.20;0.20;;;;;;;;;;5090562;28;20203;-71
2021/03/15 06:11:49;;;;;;;0.20;0.20;;;;;;;;;;5081124;28;20200;-69
2021/03/15 06:14:15;;;;;;;0.20;0.20;;;;;;;;;;5076152;28;20195;-69
2021/03/15 06:16:42;;;;;;;0.20;0.20;;;;;;;;;;5074008;28;20211;-70
2021/03/15 06:19:08;;;;;;;0.20;0.20;;;;;;;;;;5080161;28;20211;-69
2021/03/15 06:21:35;;;;;;;0.20;0.20;;;;;;;;;;5059556;28;20205;-70
2021/03/15 06:24:01;;;;;;;0.20;0.20;;;;;;;;;;5074666;28;20207;-70
2021/03/15 06:26:28;;;;;;;0.20;0.20;;;;;;;;;;5075987;28;20200;-70
2021/03/15 06:28:55;;;;;;;0.20;0.20;;;;;;;;;;5070081;28;20208;-70
2021/03/15 06:31:22;;;;;;;0.20;0.20;;;;;;;;;;5071387;28;20211;-70
2021/03/15 06:33:50;;;;;;;0.20;0.20;;;;;;;;;;5052503;28;20196;-69
2021/03/15 06:36:16;;;;;;;0.20;0.20;;;;;;;;;;5082321;28;20199;-68
2021/03/15 06:38:43;;;;;;;0.20;0.20;;;;;;;;;;5085248;28;20238;-69
2021/03/15 06:41:09;;;;;;;0.20;0.20;;;;;;;;;;5083623;28;20236;-69
2021/03/15 06:43:36;;;;;;;0.20;0.20;;;;;;;;;;5075466;28;20196;-69
2021/03/15 06:46:02;;;;;;;0.20;0.20;;;;;;;;;;5066046;28;20220;-68
2021/03/15 06:48:28;;;;;;;0.20;0.20;;;;;;;;;;5060940;28;20505;-69
2021/03/15 06:50:56;;;;;;;0.17;0.17;;;;;;;;;;5082587;28;20206;-68
2021/03/15 06:53:22;;;;;;;0.20;0.20;;;;;;;;;;5083955;28;20213;-69
2021/03/15 06:55:49;;;;;;;0.20;0.20;;;;;;;;;;5084432;28;20192;-69
2021/03/15 06:58:23;;;;;;;0.20;0.20;;;;;;;;;;5083589;28;20349;-70
2021/03/15 07:01:09;;;;;;;0.20;0.20;;;;;;;;;;5067508;28;20411;-69
2021/03/15 07:03:36;;;;;;;0.20;0.20;;;;;;;;;;5076959;28;20556;-69
2021/03/15 07:06:04;;;;;;;0.30;0.30;;;;;;;;;;5066455;28;20527;-69
2021/03/15 07:08:30;;;;;;;0.20;0.20;;;;;;;;;;5063189;28;20399;-68
2021/03/15 07:10:57;;;;;;;0.20;0.20;;;;;;;;;;5083500;28;20196;-69
2021/03/15 07:13:23;;;;;;;0.10;0.10;;;;;;;;;;5061254;28;20211;-68
2021/03/15 07:15:51;;;;;;;0.20;0.20;;;;;;;;;;5084347;28;20572;-69
2021/03/15 07:18:17;;;;;;;0.20;0.20;;;;;;;;;;5079556;28;20210;-68
2021/03/15 07:20:45;;;;;;;0.20;0.20;;;;;;;;;;5060870;28;20208;-70
2021/03/15 07:23:11;;;;;;;0.20;0.20;;;;;;;;;;5081178;28;20205;-69
2021/03/15 07:25:38;;;;;;;0.20;0.20;;;;;;;;;;5079179;28;20383;-70
2021/03/15 07:28:04;;;;;;;0.20;0.20;;;;;;;;;;5057184;28;20400;-68
2021/03/15 07:30:33;;;;;;;0.20;0.20;;;;;;;;;;5055539;28;20198;-69
2021/03/15 07:33:00;;;;;;;0.20;0.20;;;;;;;;;;5076947;28;20200;-69
2021/03/15 07:35:28;;;;;;;0.20;0.20;;;;;;;;;;5075170;28;20345;-69
2021/03/15 07:37:54;;;;;;;0.20;0.20;;;;;;;;;;5070568;28;20399;-70
2021/03/15 07:40:32;;;;;;;0.20;0.20;;;;;;;;;;5065074;28;20206;-71
2021/03/15 07:42:59;;;;;;;0.20;0.20;;;;;;;;;;5062954;28;20211;-69
2021/03/15 07:45:29;;;;;;;0.20;0.20;;;;;;;;;;5085068;28;20215;-69
2021/03/15 07:48:04;;;;;;;0.20;0.20;;;;;;;;;;5064882;28;20231;-69
2021/03/15 07:50:30;;;;;;;0.20;0.20;;;;;;;;;;5080705;28;20207;-69
2021/03/15 07:52:56;;;;;;;0.20;0.20;;;;;;;;;;5083447;28;20434;-70
2021/03/15 07:55:32;;;;;;;0.20;0.20;;;;;;;;;;5063075;28;20489;-69
2021/03/15 07:57:58;;;;;;;0.20;0.20;;;;;;;;;;5080785;28;20472;-69
2021/03/15 08:00:25;;;;;;;0.20;0.20;;;;;;;;;;5078987;28;20201;-70
2021/03/15 08:02:52;;;;;;;0.20;0.20;;;;;;;;;;5066223;28;20201;-70
2021/03/15 08:05:18;;;;;;;0.10;0.10;;;;;;;;;;5059876;28;20231;-71
2021/03/15 08:07:45;;;;;;;0.10;0.10;;;;;;;;;;5063937;28;20195;-70
2021/03/15 08:10:11;;;;;;;0.20;0.20;;;;;;;;;;5076702;28;20223;-69
2021/03/15 08:12:38;;;;;;;0.20;0.20;;;;;;;;;;5066321;28;20272;-70
2021/03/15 08:15:06;;;;;;;0.20;0.20;;;;;;;;;;5072797;28;20197;-72
2021/03/15 08:17:35;;;;;;;0.20;0.20;;;;;;;;;;5065033;28;20208;-69
2021/03/15 08:20:03;;;;;;;0.20;0.20;;;;;;;;;;5075893;28;20209;-71
2021/03/15 08:22:32;;;;;;;0.20;0.20;;;;;;;;;;5070684;28;20201;-70
2021/03/15 08:24:59;;;;;;;0.20;0.20;;;;;;;;;;5052967;28;20218;-70
2021/03/15 08:27:26;;;;;;;0.20;0.20;;;;;;;;;;5072106;28;20211;-70
2021/03/15 08:29:55;;;;;;;0.20;0.20;;;;;;;;;;5069911;28;20201;-70
2021/03/15 08:32:21;;;;;;;0.13;0.13;;;;;;;;;;5082990;28;20211;-69
2021/03/15 08:34:48;;;;;;;0.10;0.10;;;;;;;;;;5067151;28;20266;-69
2021/03/15 08:37:14;;;;;;;0.10;0.10;;;;;;;;;;5061436;28;20451;-70
2021/03/15 08:39:41;;;;;;;0.10;0.10;;;;;;;;;;5061269;28;20196;-70
2021/03/15 08:42:23;;;;;;;0.10;0.10;;;;;;;;;;5051357;28;20197;-69
2021/03/15 08:44:50;;;;;;;0.10;0.10;;;;;;;;;;5068501;28;20286;-71
2021/03/15 08:47:31;;;;;;;0.10;0.10;;;;;;;;;;5063973;28;20207;-70
2021/03/15 08:49:58;;;;;;;0.10;0.10;;;;;;;;;;5079205;28;20218;-68
2021/03/15 08:52:34;;;;;;;0.10;0.10;;;;;;;;;;5060487;28;20512;-69
2021/03/15 08:55:00;;;;;;;0.10;0.10;;;;;;;;;;5078144;28;20279;-71
2021/03/15 08:57:31;;;;;;;0.10;0.10;;;;;;;;;;5063539;28;20204;-71
2021/03/15 08:59:57;;;;;;;0.10;0.10;;;;;;;;;;5078439;28;20205;-69
2021/03/15 09:02:34;;;;;;;0.10;0.10;;;;;;;;;;5082909;28;20207;-70
2021/03/15 09:05:20;;;;;;;0.10;0.10;;;;;;;;;;5072015;28;20430;-69
2021/03/15 09:07:47;;;;;;;0.20;0.20;;;;;;;;;;5080467;28;20544;-70
2021/03/15 09:10:46;;;;;;;0.10;0.10;;;;;;;;;;5049248;28;20493;-70
2021/03/15 09:13:20;;;;;;;0.10;0.10;;;;;;;;;;5077043;28;20402;-70
2021/03/15 09:15:51;;;;;;;0.20;0.20;;;;;;;;;;5080952;28;20506;-70
2021/03/15 09:18:35;;;;;;;0.10;0.10;;;;;;;;;;5084133;28;20206;-71
2021/03/15 09:21:03;;;;;;;0.20;0.20;;;;;;;;;;5078004;28;20197;-71
2021/03/15 09:23:31;;;;;;;0.10;0.10;;;;;;;;;;5054844;28;20400;-71
2021/03/15 09:26:12;;;;;;;0.10;0.10;;;;;;;;;;5091445;28;20222;-69
2021/03/15 09:28:38;;;;;;;0.10;0.10;;;;;;;;;;5071886;28;20201;-70
2021/03/15 09:31:08;;;;;;;0.10;0.10;;;;;;;;;;5080598;28;20256;-71
2021/03/15 09:33:37;;;;;;;0.20;0.20;;;;;;;;;;5067641;28;20489;-71
2021/03/15 09:36:04;;;;;;;0.20;0.20;;;;;;;;;;5069729;28;20198;-71
2021/03/15 09:38:31;;;;;;;0.20;0.20;;;;;;;;;;5055752;28;20240;-70
2021/03/15 09:40:57;;;;;;;0.10;0.10;;;;;;;;;;5078300;28;20283;-71
2021/03/15 09:43:25;;;;;;;0.13;0.13;;;;;;;;;;5077119;28;20237;-70
2021/03/15 09:45:54;;;;;;;0.10;0.10;;;;;;;;;;5063002;28;20230;-71
2021/03/15 09:48:21;;;;;;;0.17;0.17;;;;;;;;;;5081065;28;20513;-71
2021/03/15 09:50:48;;;;;;;0.20;0.20;;;;;;;;;;5061734;28;20203;-71
2021/03/15 09:53:16;;;;;;;0.13;0.13;;;;;;;;;;5054397;28;20395;-72
2021/03/15 09:55:43;;;;;;;0.10;0.10;;;;;;;;;;5076808;28;20457;-73
2021/03/15 09:58:09;;;;;;;0.10;0.10;;;;;;;;;;5080348;28;20402;-72
2021/03/15 10:00:36;;;;;;;0.10;0.10;;;;;;;;;;5073788;28;20201;-71
2021/03/15 10:03:03;;;;;;;0.10;0.10;;;;;;;;;;5077750;28;20213;-72
2021/03/15 10:05:30;;;;;;;0.10;0.10;;;;;;;;;;5052424;28;20235;-71
2021/03/15 10:07:57;;;;;;;0.10;0.10;;;;;;;;;;5062390;28;20201;-72
2021/03/15 10:10:25;;;;;;;0.10;0.10;;;;;;;;;;5062889;28;20202;-71
2021/03/15 10:13:00;;;;;;;0.10;0.10;;;;;;;;;;5062761;28;20208;-70
2021/03/15 10:15:26;;;;;;;0.10;0.10;;;;;;;;;;5077839;28;20380;-70
2021/03/15 10:17:53;;;;;;;0.10;0.10;;;;;;;;;;5075383;28;20200;-72
2021/03/15 10:20:24;;;;;;;0.10;0.10;;;;;;;;;;5063162;28;20282;-72
2021/03/15 10:22:51;;;;;;;0.10;0.10;;;;;;;;;;5080011;28;20275;-70
2021/03/15 10:25:17;;;;;;;0.10;0.10;;;;;;;;;;5063164;28;20524;-71
2021/03/15 10:27:52;;;;;;;0.10;0.10;;;;;;;;;;5079154;28;20200;-71
2021/03/15 10:30:18;;;;;;;0.10;0.10;;;;;;;;;;5073019;28;20205;-71
2021/03/15 10:32:45;;;;;;;0.10;0.10;;;;;;;;;;5082770;28;20200;-72
2021/03/15 10:35:12;;;;;;;0.10;0.10;;;;;;;;;;5082878;28;20197;-71
2021/03/15 10:37:40;;;;;;;0.10;0.10;;;;;;;;;;5057766;28;20399;-71
2021/03/15 10:40:07;;;;;;;0.10;0.10;;;;;;;;;;5081525;28;20196;-70
2021/03/15 10:42:35;;;;;;;0.10;0.10;;;;;;;;;;5076976;28;20218;-71
2021/03/15 10:45:04;;;;;;;0.20;0.20;;;;;;;;;;5074836;28;20293;-71
2021/03/15 10:47:31;;;;;;;0.10;0.10;;;;;;;;;;5062160;28;20210;-70
2021/03/15 10:49:58;;;;;;;0.10;0.10;;;;;;;;;;5062336;28;20451;-71
2021/03/15 10:52:29;;;;;;;0.10;0.10;;;;;;;;;;5078213;28;20226;-71
2021/03/15 10:54:55;;;;;;;0.10;0.10;;;;;;;;;;5069569;28;20508;-70
2021/03/15 10:57:22;;;;;;;0.20;0.20;;;;;;;;;;5073478;28;20204;-70
2021/03/15 10:59:49;;;;;;;0.10;0.10;;;;;;;;;;5087038;28;20289;-73
2021/03/15 11:02:20;;;;;;;0.10;0.10;;;;;;;;;;5073914;28;20549;-72
2021/03/15 11:04:51;;;;;;;0.10;0.10;;;;;;;;;;5072158;28;20492;-71
2021/03/15 11:07:19;;;;;;;0.10;0.10;;;;;;;;;;5074969;28;20205;-71
2021/03/15 11:09:55;;;;;;;0.10;0.10;;;;;;;;;;5060100;28;20196;-72
2021/03/15 11:12:41;;;;;;;0.10;0.10;;;;;;;;;;5078369;28;20276;-69
2021/03/15 11:15:31;;;;;;;0.10;0.10;;;;;;;;;;5073416;28;20508;-71
2021/03/15 11:18:00;;;;;;;0.10;0.10;;;;;;;;;;5073355;28;20385;-71
2021/03/15 11:20:34;;;;;;;0.10;0.10;;;;;;;;;;5054156;28;20201;-72
2021/03/15 11:23:00;;;;;;;0.20;0.20;;;;;;;;;;5077617;28;20215;-72
2021/03/15 11:25:28;;;;;;;0.17;0.17;;;;;;;;;;5053971;28;20217;-73
2021/03/15 11:27:55;;;;;;;0.10;0.10;;;;;;;;;;5077633;28;20208;-70
2021/03/15 11:30:23;;;;;;;0.10;0.10;;;;;;;;;;5078479;28;20205;-72
2021/03/15 11:32:56;;;;;;;0.13;0.13;;;;;;;;;;5061688;28;20195;-71
2021/03/15 11:35:25;;;;;;;0.13;0.13;;;;;;;;;;5074191;28;20196;-71
2021/03/15 11:37:52;;;;;;;0.10;0.10;;;;;;;;;;5076277;28;20208;-72
2021/03/15 11:40:28;;;;;;;0.10;0.10;;;;;;;;;;5070491;28;20495;-71
2021/03/15 11:42:54;;;;;;;0.10;0.10;;;;;;;;;;5056934;28;20199;-71
2021/03/15 11:45:21;;;;;;;0.10;0.10;;;;;;;;;;5078699;28;20237;-71
2021/03/15 11:47:47;;;;;;;0.20;0.20;;;;;;;;;;5058956;28;20208;-71
2021/03/15 11:50:14;;;;;;;0.10;0.10;;;;;;;;;;5056984;28;20213;-71
2021/03/15 11:52:41;;;;;;;0.10;0.10;;;;;;;;;;5076931;28;20215;-74
2021/03/15 11:55:09;;;;;;;0.10;0.10;;;;;;;;;;5075146;28;20203;-73
2021/03/15 11:57:35;;;;;;;0.10;0.10;;;;;;;;;;5061508;28;20239;-71
2021/03/15 12:00:01;;;;;;;0.10;0.10;;;;;;;;;;5072843;28;20245;-72
2021/03/15 12:02:27;;;;;;;0.10;0.10;;;;;;;;;;5081374;28;20198;-73
2021/03/15 12:04:53;;;;;;;0.10;0.10;;;;;;;;;;5074189;28;22518;-71
2021/03/15 12:07:20;;;;;;;0.10;0.10;;;;;;;;;;5079683;28;20414;-71
2021/03/15 12:09:47;;;;;;;0.10;0.10;;;;;;;;;;5063263;28;20209;-71
2021/03/15 12:12:14;;;;;;;0.10;0.10;;;;;;;;;;5057848;28;20437;-73
2021/03/15 12:14:40;;;;;;;0.10;0.10;;;;;;;;;;5074465;28;20511;-72
2021/03/15 12:17:07;;;;;;;0.10;0.10;;;;;;;;;;5075980;28;20392;-71
2021/03/15 12:19:33;;;;;;;0.10;0.10;;;;;;;;;;5059881;28;20476;-73
2021/03/15 12:21:59;;;;;;;0.10;0.10;;;;;;;;;;5082326;28;20508;-71
2021/03/15 12:24:25;;;;;;;0.10;0.10;;;;;;;;;;5075751;28;20395;-72
2021/03/15 12:26:53;;;;;;;0.10;0.10;;;;;;;;;;5059056;28;20230;-72
2021/03/15 12:29:19;;;;;;;0.10;0.10;;;;;;;;;;5062297;28;20217;-73
2021/03/15 12:31:46;;;;;;;0.10;0.10;;;;;;;;;;5059174;28;20286;-72
2021/03/15 12:34:12;;;;;;;0.10;0.10;;;;;;;;;;5074128;28;20205;-72
2021/03/15 12:36:38;;;;;;;0.10;0.10;;;;;;;;;;5057736;28;20198;-72
2021/03/15 12:39:05;;;;;;;0.10;0.10;;;;;;;;;;5077820;28;20577;-72
2021/03/15 12:41:32;;;;;;;0.10;0.10;;;;;;;;;;5078583;28;20206;-72
2021/03/15 12:43:59;;;;;;;0.10;0.10;;;;;;;;;;5059977;28;20204;-70
2021/03/15 12:46:26;;;;;;;0.20;0.20;;;;;;;;;;5073328;28;20222;-70
2021/03/15 12:48:52;;;;;;;0.10;0.10;;;;;;;;;;5054509;28;20225;-71
2021/03/15 12:51:18;;;;;;;0.10;0.10;;;;;;;;;;5078367;28;20230;-70
2021/03/15 12:53:44;;;;;;;0.20;0.20;;;;;;;;;;5057005;28;20199;-70
2021/03/15 12:56:11;;;;;;;0.10;0.10;;;;;;;;;;5060117;28;20362;-70
2021/03/15 12:58:37;;;;;;;0.10;0.10;;;;;;;;;;5052502;28;20202;-70
2021/03/15 13:01:05;;;;;;;0.20;0.20;;;;;;;;;;5053177;28;20527;-70
2021/03/15 13:03:31;;;;;;;0.10;0.10;;;;;;;;;;5053341;28;20214;-68
2021/03/15 13:05:57;;;;;;;0.10;0.10;;;;;;;;;;5077303;28;20299;-70
2021/03/15 13:08:24;;;;;;;0.10;0.10;;;;;;;;;;5060805;28;20199;-71
2021/03/15 13:10:50;;;;;;;0.10;0.10;;;;;;;;;;5059814;28;20195;-72
2021/03/15 13:13:17;;;;;;;0.10;0.10;;;;;;;;;;5052845;28;20208;-71
2021/03/15 13:15:43;;;;;;;0.10;0.10;;;;;;;;;;5057261;28;20198;-73
2021/03/15 13:18:11;;;;;;;0.10;0.10;;;;;;;;;;5073603;28;20197;-70
2021/03/15 13:20:38;;;;;;;0.10;0.10;;;;;;;;;;5077022;28;20207;-69
2021/03/15 13:23:04;;;;;;;0.10;0.10;;;;;;;;;;5060945;28;20203;-71
2021/03/15 13:25:31;;;;;;;0.10;0.10;;;;;;;;;;5058526;28;20242;-70
2021/03/15 13:27:57;;;;;;;0.20;0.20;;;;;;;;;;5059593;28;20218;-69
2021/03/15 13:30:24;;;;;;;0.10;0.10;;;;;;;;;;5058702;28;20244;-70
2021/03/15 13:32:50;;;;;;;0.10;0.10;;;;;;;;;;5069198;28;20433;-70
2021/03/15 13:35:18;;;;;;;0.20;0.20;;;;;;;;;;5048630;28;20200;-69
2021/03/15 13:37:44;;;;;;;0.10;0.10;;;;;;;;;;5057703;28;20195;-69
2021/03/15 13:40:11;;;;;;;0.10;0.10;;;;;;;;;;5052101;28;20207;-69
2021/03/15 13:42:37;;;;;;;0.13;0.13;;;;;;;;;;5078331;28;20196;-70
2021/03/15 13:45:04;;;;;;;0.10;0.10;;;;;;;;;;5080212;28;20249;-71
2021/03/15 13:47:29;;;;;;;0.20;0.20;;;;;;;;;;5095763;28;20200;-70
2021/03/15 13:49:56;;;;;;;0.20;0.20;;;;;;;;;;5074321;28;20499;-70
2021/03/15 13:52:23;;;;;;;0.10;0.10;;;;;;;;;;5071693;28;20203;-72
2021/03/15 13:54:49;;;;;;;0.10;0.10;;;;;;;;;;5055659;28;20470;-70
2021/03/15 13:57:16;;;;;;;0.10;0.10;;;;;;;;;;5076861;28;20229;-69
2021/03/15 13:59:42;;;;;;;0.10;0.10;;;;;;;;;;5072219;28;20509;-71
2021/03/15 14:02:09;;;;;;;0.17;0.17;;;;;;;;;;5056341;28;20202;-69
2021/03/15 14:04:35;;;;;;;0.17;0.17;;;;;;;;;;5073484;28;20250;-71
2021/03/15 14:07:02;;;;;;;0.20;0.20;;;;;;;;;;5051979;28;20272;-69
2021/03/15 14:09:29;;;;;;;0.10;0.10;;;;;;;;;;5059771;28;20207;-70
2021/03/15 14:11:56;;;;;;;0.10;0.10;;;;;;;;;;5051316;28;20215;-70
2021/03/15 14:14:22;;;;;;;0.10;0.10;;;;;;;;;;5049985;28;20394;-70
2021/03/15 14:16:49;;;;;;;0.20;0.20;;;;;;;;;;5054065;28;20195;-70
2021/03/15 14:19:16;;;;;;;0.10;0.10;;;;;;;;;;5052196;28;20215;-69
2021/03/15 14:21:42;;;;;;;0.20;0.20;;;;;;;;;;5051607;28;20248;-70
2021/03/15 14:24:09;;;;;;;0.10;0.10;;;;;;;;;;5092577;28;20210;-69
2021/03/15 14:26:37;;;;;;;0.10;0.10;;;;;;;;;;5057664;28;20253;-69
2021/03/15 14:29:05;;;;;;;0.10;0.10;;;;;;;;;;5050466;28;20207;-70
2021/03/15 14:31:31;;;;;;;0.10;0.10;;;;;;;;;;5074228;28;20475;-70
2021/03/15 14:33:58;;;;;;;0.10;0.10;;;;;;;;;;5054322;28;20202;-71
2021/03/15 14:36:25;;;;;;;0.10;0.10;;;;;;;;;;5068871;28;20195;-70
2021/03/15 14:38:51;;;;;;;0.10;0.10;;;;;;;;;;5053954;28;20199;-69
2021/03/15 14:41:18;;;;;;;0.20;0.20;;;;;;;;;;5050734;28;20401;-70
2021/03/15 14:43:45;;;;;;;0.20;0.20;;;;;;;;;;5055703;28;20203;-69
2021/03/15 14:46:12;;;;;;;0.10;0.10;;;;;;;;;;5050682;28;20549;-71
2021/03/15 14:48:38;;;;;;;0.20;0.20;;;;;;;;;;5053880;28;20267;-70